Salt Lake City, Utah
Traffic Map
Current Weather Conditions
Salt Lake City, Utah
Scattered Clouds
Scattered Clouds
83°
Feels Like: 83°
Wind Chill: 83° Ceiling: Unl
Heat Index: 83° Visibility: 10mi
Dew Point: 47° Wind: 5mph
Humidity: 28% Direction: ° ()
Pressure: 30.1in Gusts: 0mph
Raw Report DataKSLC 232153Z VRB04KT 10SM FEW080 FEW140 SCT230 28/08 A3010 RMK AO2 SLP143 T02830083
Traffic Incident Summary
Active as of:
Severity:
Category:
InformationThere was an issue retrieving the traffic information for this location. Please try a different location or try again shortly.
Advertisements
Track Severe Weather on mobile